Terminal Aerodrome Forecast
Issued by NWS

Home | Current Version | Previous Version | Text Only | Print | Product List | Glossary On
Versions: 1 2 3 4 5 6 7 8 9 10 11 12 13 14 15 16 17 18 19 20 21 22 23 24 25 26 27 28
000
FTUS45 KGJT 011510 AAB
TAFVEL
TAF AMD
KVEL 011510Z 0115/0212 13005KT P6SM VCSH OVC021
     FM011800 08010KT P6SM VCSH FEW030 OVC050
     FM012100 35012G20KT P6SM SCT080 BKN140
     FM020400 32005KT P6SM SCT140=

USA.gov is the U.S. government's official web portal to all federal, state and local government web resources and services.